createdAt,value
2018-08-08T00:00:15.692Z,26.5
2018-08-08T00:01:15.764Z,26.5
2018-08-08T00:02:15.642Z,26.5
2018-08-08T00:03:15.734Z,26.5
2018-08-08T00:04:15.631Z,26.5
2018-08-08T00:05:15.594Z,26.5
2018-08-08T00:06:15.743Z,26.5
2018-08-08T00:07:15.791Z,26.5
2018-08-08T00:08:15.812Z,26.5
2018-08-08T00:09:15.640Z,26.44
2018-08-08T00:10:15.650Z,26.44
2018-08-08T00:11:15.639Z,26.44
2018-08-08T00:12:15.691Z,26.44
2018-08-08T00:13:15.714Z,26.44
2018-08-08T00:14:15.631Z,26.37
2018-08-08T00:15:15.637Z,26.37
2018-08-08T00:16:15.839Z,26.37
2018-08-08T00:17:15.619Z,26.37
2018-08-08T00:18:15.739Z,26.37
2018-08-08T00:19:15.723Z,26.31
2018-08-08T00:20:15.619Z,26.31
2018-08-08T00:21:15.620Z,26.25
2018-08-08T00:22:15.684Z,26.31
2018-08-08T00:23:15.635Z,26.25
2018-08-08T00:24:15.827Z,26.31
2018-08-08T00:25:15.694Z,26.31
2018-08-08T00:26:15.697Z,26.25
2018-08-08T00:27:15.643Z,26.31
2018-08-08T00:28:15.642Z,26.31
2018-08-08T00:29:15.619Z,26.31
2018-08-08T00:30:15.658Z,26.31
2018-08-08T00:31:15.664Z,26.31
2018-08-08T00:32:15.649Z,26.25
2018-08-08T00:33:15.656Z,26.25
2018-08-08T00:34:15.651Z,26.25
2018-08-08T00:35:15.664Z,26.19
2018-08-08T00:36:15.638Z,26.19
2018-08-08T00:37:15.668Z,26.19
2018-08-08T00:38:15.644Z,26.19
2018-08-08T00:39:15.685Z,26.19
2018-08-08T00:40:15.699Z,26.19
2018-08-08T00:41:16.051Z,26.12
2018-08-08T00:42:15.661Z,26.19
2018-08-08T00:43:15.659Z,26.12
2018-08-08T00:44:15.653Z,26.12
2018-08-08T00:45:15.670Z,26.12
2018-08-08T00:46:15.654Z,26.12
2018-08-08T00:47:15.708Z,26.12
2018-08-08T00:48:15.656Z,26.12
2018-08-08T00:49:15.681Z,26.06
2018-08-08T00:50:15.867Z,26.12
2018-08-08T00:51:15.973Z,26.06
2018-08-08T00:52:15.666Z,26.06
2018-08-08T00:53:15.691Z,26.12
2018-08-08T00:54:15.783Z,26.12
2018-08-08T00:55:15.824Z,26.12
2018-08-08T00:56:15.677Z,26.12
2018-08-08T00:57:15.661Z,26.12
2018-08-08T00:58:15.707Z,26.06
2018-08-08T00:59:16.126Z,26.12
2018-08-08T01:00:15.690Z,26.12
2018-08-08T01:01:15.701Z,26.06
2018-08-08T01:02:15.696Z,26.12
2018-08-08T01:03:15.658Z,26.06
2018-08-08T01:04:15.726Z,26.06
2018-08-08T01:05:15.737Z,26.12
2018-08-08T01:06:15.694Z,26.06
2018-08-08T01:07:15.684Z,26.12
2018-08-08T01:08:16.224Z,26.06
2018-08-08T01:09:15.682Z,26.06
2018-08-08T01:10:15.932Z,26.06
2018-08-08T01:11:15.721Z,26.06
2018-08-08T01:12:15.689Z,26.06
2018-08-08T01:13:15.784Z,26.06
2018-08-08T01:14:15.725Z,26.06
2018-08-08T01:15:15.694Z,26.06
2018-08-08T01:16:15.690Z,26.06
2018-08-08T01:17:15.724Z,26.06
2018-08-08T01:18:15.767Z,26
2018-08-08T01:19:15.698Z,26.06
2018-08-08T01:20:15.754Z,26.06
2018-08-08T01:21:15.705Z,26
2018-08-08T01:22:15.714Z,26.06
2018-08-08T01:23:15.685Z,26.06
2018-08-08T01:24:15.691Z,26.06
2018-08-08T01:25:15.722Z,26
2018-08-08T01:26:15.712Z,26
2018-08-08T01:27:15.700Z,25.94
2018-08-08T01:28:15.773Z,25.94
2018-08-08T01:29:15.704Z,25.94
2018-08-08T01:30:15.722Z,25.94
2018-08-08T01:31:15.778Z,25.94
2018-08-08T01:32:15.801Z,25.88
2018-08-08T01:33:15.868Z,25.88
2018-08-08T01:34:15.756Z,25.88
2018-08-08T01:35:15.821Z,25.88
2018-08-08T01:36:15.771Z,25.88
2018-08-08T01:37:15.735Z,25.88
2018-08-08T01:38:15.770Z,25.88
2018-08-08T01:39:15.788Z,25.88
2018-08-08T01:40:15.744Z,25.88
2018-08-08T01:41:15.725Z,25.81
2018-08-08T01:42:15.738Z,25.81
2018-08-08T01:43:15.852Z,25.81
2018-08-08T01:44:15.735Z,25.81
2018-08-08T01:45:15.771Z,25.81
2018-08-08T01:46:15.733Z,25.81
2018-08-08T01:47:15.759Z,25.75
2018-08-08T01:48:15.748Z,25.75
2018-08-08T01:49:15.744Z,25.81
2018-08-08T01:50:15.738Z,25.75
2018-08-08T01:51:15.760Z,25.75
2018-08-08T01:52:15.753Z,25.75
2018-08-08T01:53:15.818Z,25.75
2018-08-08T01:54:15.771Z,25.75
2018-08-08T01:55:15.754Z,25.75
2018-08-08T01:56:15.736Z,25.75
2018-08-08T01:57:15.762Z,25.75
2018-08-08T01:58:15.775Z,25.75
2018-08-08T01:59:15.762Z,25.75
2018-08-08T02:00:15.747Z,25.75
2018-08-08T02:01:15.738Z,25.75
2018-08-08T02:02:15.766Z,25.75
2018-08-08T02:03:15.743Z,25.81
2018-08-08T02:04:15.781Z,25.75
2018-08-08T02:05:15.764Z,25.81
2018-08-08T02:06:15.944Z,25.81
2018-08-08T02:07:15.792Z,25.81
2018-08-08T02:08:15.809Z,25.81
2018-08-08T02:09:15.792Z,25.81
2018-08-08T02:10:15.797Z,25.81
2018-08-08T02:11:15.772Z,25.81
2018-08-08T02:12:15.828Z,25.81
2018-08-08T02:13:15.909Z,25.81
2018-08-08T02:14:15.884Z,25.81
2018-08-08T02:15:15.839Z,25.81
2018-08-08T02:16:16.101Z,25.81
2018-08-08T02:17:15.772Z,25.81
2018-08-08T02:18:15.894Z,25.81
2018-08-08T02:19:15.816Z,25.81
2018-08-08T02:20:15.833Z,25.81
2018-08-08T02:21:15.790Z,25.81
2018-08-08T02:22:15.790Z,25.81
2018-08-08T02:23:15.777Z,25.81
2018-08-08T02:24:15.787Z,25.81
2018-08-08T02:25:15.791Z,25.81
2018-08-08T02:26:15.866Z,25.81
2018-08-08T02:27:15.811Z,25.81
2018-08-08T02:28:15.855Z,25.81
2018-08-08T02:29:15.924Z,25.81
2018-08-08T02:30:15.808Z,25.75
2018-08-08T02:31:15.853Z,25.75
2018-08-08T02:32:15.819Z,25.81
2018-08-08T02:33:15.835Z,25.75
2018-08-08T02:34:15.806Z,25.81
2018-08-08T02:35:15.800Z,25.75
2018-08-08T02:36:15.804Z,25.75
2018-08-08T02:37:16.512Z,25.75
2018-08-08T02:38:15.887Z,25.75
2018-08-08T02:39:16.028Z,25.69
2018-08-08T02:40:15.907Z,25.69
2018-08-08T02:41:15.836Z,25.69
2018-08-08T02:42:15.898Z,25.62
2018-08-08T02:43:15.901Z,25.69
2018-08-08T02:44:15.822Z,25.62
2018-08-08T02:45:15.817Z,25.62
2018-08-08T02:46:15.815Z,25.62
2018-08-08T02:47:15.844Z,25.62
2018-08-08T02:48:16.113Z,25.62
2018-08-08T02:49:15.838Z,25.56
2018-08-08T02:50:15.905Z,25.56
2018-08-08T02:51:15.841Z,25.56
2018-08-08T02:52:15.853Z,25.56
2018-08-08T02:53:15.877Z,25.5
2018-08-08T02:54:15.872Z,25.56
2018-08-08T02:55:15.841Z,25.56
2018-08-08T02:56:15.907Z,25.56
2018-08-08T02:57:15.850Z,25.56
2018-08-08T02:58:15.837Z,25.56
2018-08-08T02:59:15.855Z,25.5
2018-08-08T03:00:15.876Z,25.44
2018-08-08T03:01:15.876Z,25.44
2018-08-08T03:02:16.066Z,25.5
2018-08-08T03:03:16.099Z,25.5
2018-08-08T03:04:15.853Z,25.44
2018-08-08T03:05:15.871Z,25.44
2018-08-08T03:06:15.853Z,25.5
2018-08-08T03:07:15.823Z,25.5
2018-08-08T03:08:16.524Z,25.5
2018-08-08T03:09:15.874Z,25.5
2018-08-08T03:10:15.863Z,25.5
2018-08-08T03:11:15.887Z,25.5
2018-08-08T03:12:15.842Z,25.5
2018-08-08T03:13:15.834Z,25.5
2018-08-08T03:14:15.838Z,25.5
2018-08-08T03:15:19.989Z,25.56
2018-08-08T03:16:15.857Z,25.5
2018-08-08T03:17:15.881Z,25.5
2018-08-08T03:18:15.952Z,25.5
2018-08-08T03:19:15.847Z,25.5
2018-08-08T03:20:15.872Z,25.44
2018-08-08T03:21:15.875Z,25.37
2018-08-08T03:22:15.868Z,25.31
2018-08-08T03:23:15.916Z,25.37
2018-08-08T03:24:15.867Z,25.31
2018-08-08T03:25:15.903Z,25.31
2018-08-08T03:26:16.686Z,25.31
2018-08-08T03:27:15.898Z,25.31
2018-08-08T03:28:15.910Z,25.31
2018-08-08T03:29:15.862Z,25.31
2018-08-08T03:30:15.901Z,25.31
2018-08-08T03:31:16.071Z,25.31
2018-08-08T03:32:16.028Z,25.37
2018-08-08T03:33:15.867Z,25.31
2018-08-08T03:34:16.014Z,25.31
2018-08-08T03:35:15.935Z,25.37
2018-08-08T03:36:16.137Z,25.31
2018-08-08T03:37:15.881Z,25.37
2018-08-08T03:38:15.892Z,25.37
2018-08-08T03:39:16.009Z,25.31
2018-08-08T03:40:15.884Z,25.37
2018-08-08T03:41:16.088Z,25.37
2018-08-08T03:42:16.174Z,25.31
2018-08-08T03:43:15.873Z,25.31
2018-08-08T03:44:15.901Z,25.31
2018-08-08T03:45:16.006Z,25.31
2018-08-08T03:46:15.915Z,25.31
2018-08-08T03:47:15.885Z,25.25
2018-08-08T03:48:15.909Z,25.25
2018-08-08T03:49:16.056Z,25.25
2018-08-08T03:50:15.890Z,25.25
2018-08-08T03:51:16.093Z,25.19
2018-08-08T03:52:16.048Z,25.25
2018-08-08T03:53:16.721Z,25.19
2018-08-08T03:54:16.033Z,25.19
2018-08-08T03:55:15.915Z,25.25
2018-08-08T03:56:16.085Z,25.19
2018-08-08T03:57:16.082Z,25.19
2018-08-08T03:58:16.145Z,25.19
2018-08-08T03:59:16.074Z,25.19
2018-08-08T04:00:16.217Z,25.19
2018-08-08T04:01:16.082Z,25.19
2018-08-08T04:02:16.103Z,25.12
2018-08-08T04:03:16.109Z,25.12
2018-08-08T04:04:15.893Z,25.12
2018-08-08T04:05:15.938Z,25.12
2018-08-08T04:06:16.011Z,25.12
2018-08-08T04:07:15.996Z,25.12
2018-08-08T04:08:16.097Z,25.19
2018-08-08T04:09:16.417Z,25.19
2018-08-08T04:10:15.926Z,25.12
2018-08-08T04:11:15.913Z,25.12
2018-08-08T04:12:16.087Z,25.12
2018-08-08T04:13:16.034Z,25.12
2018-08-08T04:14:15.908Z,25.06
2018-08-08T04:15:16.071Z,25.12
2018-08-08T04:16:16.108Z,25.06
2018-08-08T04:17:16.886Z,25.06
2018-08-08T04:18:15.936Z,25.06
2018-08-08T04:19:16.121Z,25.06
2018-08-08T04:20:16.103Z,25.06
2018-08-08T04:21:15.958Z,25.06
2018-08-08T04:22:16.068Z,25.06
2018-08-08T04:23:16.014Z,25.06
2018-08-08T04:24:16.479Z,25.06
2018-08-08T04:25:16.021Z,25
2018-08-08T04:26:15.934Z,25.06
2018-08-08T04:27:15.920Z,25
2018-08-08T04:28:15.951Z,25.06
2018-08-08T04:29:15.941Z,25.12
2018-08-08T04:30:16.015Z,25.12
2018-08-08T04:31:15.937Z,25.19
2018-08-08T04:32:15.968Z,25.19
2018-08-08T04:33:16.062Z,25.19
2018-08-08T04:34:15.932Z,25.25
2018-08-08T04:35:15.998Z,25.25
2018-08-08T04:36:15.957Z,25.31
2018-08-08T04:37:15.960Z,25.31
2018-08-08T04:38:15.939Z,25.31
2018-08-08T04:39:15.929Z,25.37
2018-08-08T04:40:15.984Z,25.37
2018-08-08T04:41:15.937Z,25.44
2018-08-08T04:42:15.952Z,25.44
2018-08-08T04:43:15.943Z,25.5
2018-08-08T04:44:15.961Z,25.5
2018-08-08T04:45:16.153Z,25.5
2018-08-08T04:46:16.160Z,25.56
2018-08-08T04:47:15.974Z,25.56
2018-08-08T04:48:16.064Z,25.56
2018-08-08T04:49:16.065Z,25.56
2018-08-08T04:50:16.010Z,25.56
2018-08-08T04:51:16.036Z,25.62
2018-08-08T04:52:15.979Z,25.62
2018-08-08T04:53:16.180Z,25.62
2018-08-08T04:54:16.125Z,25.62
2018-08-08T04:55:16.080Z,25.62
2018-08-08T04:56:16.043Z,25.62
2018-08-08T04:57:16.114Z,25.62
2018-08-08T04:58:16.005Z,25.62
2018-08-08T04:59:16.103Z,25.62
2018-08-08T05:00:16.689Z,25.62
2018-08-08T05:01:16.234Z,25.62
2018-08-08T05:02:15.999Z,25.56
2018-08-08T05:03:16.075Z,25.56
2018-08-08T05:04:16.100Z,25.62
2018-08-08T05:05:16.102Z,25.56
2018-08-08T05:06:15.998Z,25.62
2018-08-08T05:07:15.993Z,25.56
2018-08-08T05:08:16.006Z,25.56
2018-08-08T05:09:16.077Z,25.62
2018-08-08T05:10:16.076Z,25.56
2018-08-08T05:11:16.021Z,25.56
2018-08-08T05:12:16.192Z,25.56
2018-08-08T05:13:16.225Z,25.56
2018-08-08T05:14:16.057Z,25.56
2018-08-08T05:15:16.108Z,25.62
2018-08-08T05:16:16.055Z,25.56
2018-08-08T05:17:16.058Z,25.56
2018-08-08T05:18:16.157Z,25.62
2018-08-08T05:19:16.117Z,25.62
2018-08-08T05:20:18.226Z,25.62
2018-08-08T05:21:16.260Z,25.62
2018-08-08T05:22:16.056Z,25.56
2018-08-08T05:23:16.095Z,25.62
2018-08-08T05:24:16.403Z,25.62
2018-08-08T05:25:16.023Z,25.62
2018-08-08T05:26:16.101Z,25.62
2018-08-08T05:27:16.068Z,25.62
2018-08-08T05:28:16.097Z,25.56
2018-08-08T05:29:16.060Z,25.62
2018-08-08T05:30:16.051Z,25.56
2018-08-08T05:31:16.088Z,25.56
2018-08-08T05:32:16.146Z,25.62
2018-08-08T05:33:16.030Z,25.62
2018-08-08T05:34:16.200Z,25.62
2018-08-08T05:35:16.305Z,25.62
2018-08-08T05:36:16.556Z,25.62
2018-08-08T05:37:16.115Z,25.56
2018-08-08T05:38:16.154Z,25.62
2018-08-08T05:39:16.192Z,25.62
2018-08-08T05:40:16.105Z,25.56
2018-08-08T05:41:16.045Z,25.62
2018-08-08T05:42:16.028Z,25.56
2018-08-08T05:43:16.050Z,25.56
2018-08-08T05:44:16.041Z,25.62
2018-08-08T05:45:16.043Z,25.56
2018-08-08T05:46:16.060Z,25.56
2018-08-08T05:47:16.055Z,25.56
2018-08-08T05:48:16.065Z,25.5
2018-08-08T05:49:16.352Z,25.56
2018-08-08T05:50:16.094Z,25.56
2018-08-08T05:51:16.048Z,25.5
2018-08-08T05:52:16.038Z,25.56
2018-08-08T05:53:16.054Z,25.56
2018-08-08T05:54:16.038Z,25.56
2018-08-08T05:55:16.065Z,25.56
2018-08-08T05:56:16.086Z,25.56
2018-08-08T05:57:16.095Z,25.56
2018-08-08T05:58:16.038Z,25.56
2018-08-08T05:59:16.056Z,25.56
2018-08-08T06:00:16.099Z,25.56
2018-08-08T06:01:16.098Z,25.56
2018-08-08T06:02:16.109Z,25.56
2018-08-08T06:03:16.082Z,25.56
2018-08-08T06:04:16.047Z,25.56
2018-08-08T06:05:16.097Z,25.56
2018-08-08T06:06:26.822Z,25.56
2018-08-08T06:07:28.592Z,25.56
2018-08-08T06:08:33.329Z,25.56
2018-08-08T06:09:42.273Z,25.62
2018-08-08T06:10:16.139Z,25.62
2018-08-08T06:11:16.156Z,25.56
2018-08-08T06:12:16.100Z,25.62
2018-08-08T06:13:16.099Z,25.56
2018-08-08T06:14:16.354Z,25.62
2018-08-08T06:15:16.093Z,25.62
2018-08-08T06:16:16.087Z,25.62
2018-08-08T06:17:16.075Z,25.62
2018-08-08T06:18:16.122Z,25.62
2018-08-08T06:19:16.113Z,25.62
2018-08-08T06:20:16.156Z,25.62
2018-08-08T06:21:16.086Z,25.62
2018-08-08T06:22:16.252Z,25.62
2018-08-08T06:23:16.092Z,25.69
2018-08-08T06:24:16.109Z,25.62
2018-08-08T06:25:16.238Z,25.69
2018-08-08T06:26:16.122Z,25.69
2018-08-08T06:27:16.772Z,25.69
2018-08-08T06:28:16.405Z,25.75
2018-08-08T06:29:16.092Z,25.75
2018-08-08T06:30:16.081Z,25.75
2018-08-08T06:31:16.156Z,25.69
2018-08-08T06:32:16.080Z,25.69
2018-08-08T06:33:16.105Z,25.69
2018-08-08T06:34:16.094Z,25.75
2018-08-08T06:35:16.098Z,25.75
2018-08-08T06:36:16.100Z,25.75
2018-08-08T06:37:16.099Z,25.75
2018-08-08T06:38:16.102Z,25.75
2018-08-08T06:39:16.245Z,25.75
2018-08-08T06:40:16.216Z,25.75
2018-08-08T06:41:16.614Z,25.75
2018-08-08T06:42:16.201Z,25.75
2018-08-08T06:43:16.149Z,25.75
2018-08-08T06:44:16.222Z,25.81
2018-08-08T06:45:16.138Z,25.75
2018-08-08T06:46:16.132Z,25.75
2018-08-08T06:47:16.100Z,25.75
2018-08-08T06:48:16.198Z,25.75
2018-08-08T06:49:16.176Z,25.75
2018-08-08T06:50:16.322Z,25.81
2018-08-08T06:51:16.262Z,25.81
2018-08-08T06:52:16.131Z,25.81
2018-08-08T06:53:16.398Z,25.88
2018-08-08T06:54:16.318Z,25.88
2018-08-08T06:55:16.437Z,25.94
2018-08-08T06:56:16.329Z,25.94
2018-08-08T06:57:16.118Z,25.94
2018-08-08T06:58:16.141Z,26
2018-08-08T06:59:16.149Z,26
2018-08-08T07:00:16.142Z,26
2018-08-08T07:01:16.182Z,25.94
2018-08-08T07:02:16.178Z,26
2018-08-08T07:03:16.157Z,25.94
2018-08-08T07:04:16.189Z,25.94
2018-08-08T07:05:16.198Z,25.94
2018-08-08T07:06:16.206Z,25.94
2018-08-08T07:07:16.183Z,26
2018-08-08T07:08:16.138Z,26
2018-08-08T07:09:16.142Z,26.06
2018-08-08T07:10:16.657Z,26.12
2018-08-08T07:11:16.183Z,26.19
2018-08-08T07:12:16.175Z,26.25
2018-08-08T07:13:16.170Z,26.25
2018-08-08T07:14:16.564Z,26.31
2018-08-08T07:15:16.165Z,26.37
2018-08-08T07:16:16.158Z,26.44
2018-08-08T07:17:16.185Z,26.44
2018-08-08T07:18:16.155Z,26.5
2018-08-08T07:19:16.184Z,26.5
2018-08-08T07:20:16.213Z,26.56
2018-08-08T07:21:16.210Z,26.56
2018-08-08T07:22:16.229Z,26.62
2018-08-08T07:23:16.239Z,26.69
2018-08-08T07:24:16.227Z,26.69
2018-08-08T07:25:16.932Z,26.75
2018-08-08T07:26:16.198Z,26.75
2018-08-08T07:27:16.221Z,26.81
2018-08-08T07:28:16.362Z,26.81
2018-08-08T07:29:16.237Z,26.81
2018-08-08T07:30:16.399Z,26.81
2018-08-08T07:31:16.185Z,26.87
2018-08-08T07:32:16.992Z,26.87
2018-08-08T07:33:16.277Z,26.87
2018-08-08T07:34:16.207Z,26.94
2018-08-08T07:35:16.195Z,26.94
2018-08-08T07:36:16.259Z,26.94
2018-08-08T07:37:16.446Z,26.94
2018-08-08T07:38:16.237Z,26.94
2018-08-08T07:39:16.251Z,26.94
2018-08-08T07:40:16.361Z,26.94
2018-08-08T07:41:16.282Z,26.87
2018-08-08T07:42:16.254Z,26.87
2018-08-08T07:43:16.348Z,26.87
2018-08-08T07:44:16.229Z,26.87
2018-08-08T07:45:16.229Z,26.94
2018-08-08T07:46:16.477Z,26.94
2018-08-08T07:47:16.331Z,26.87
2018-08-08T07:48:16.298Z,26.87
2018-08-08T07:49:16.448Z,26.94
2018-08-08T07:50:16.240Z,26.94
2018-08-08T07:51:16.240Z,27
2018-08-08T07:52:16.284Z,27
2018-08-08T07:53:16.408Z,27
2018-08-08T07:54:16.249Z,27.06
2018-08-08T07:55:16.243Z,27.13
2018-08-08T07:56:16.215Z,27.13
2018-08-08T07:57:16.240Z,27.19
2018-08-08T07:58:18.245Z,27.13
2018-08-08T07:59:16.374Z,27.19
2018-08-08T08:00:16.226Z,27.13
2018-08-08T08:01:16.221Z,27.13
2018-08-08T08:02:16.303Z,27.13
2018-08-08T08:03:16.344Z,27.19
2018-08-08T08:04:16.327Z,27.13
2018-08-08T08:05:16.262Z,27.13
2018-08-08T08:06:16.260Z,27.19
2018-08-08T08:07:16.265Z,27.19
2018-08-08T08:08:16.560Z,27.19
2018-08-08T08:09:16.250Z,27.19
2018-08-08T08:10:16.328Z,27.25
2018-08-08T08:11:16.304Z,27.25
2018-08-08T08:12:16.272Z,27.25
2018-08-08T08:13:16.599Z,27.31
2018-08-08T08:14:16.356Z,27.31
2018-08-08T08:15:16.299Z,27.25
2018-08-08T08:16:16.225Z,27.25
2018-08-08T08:17:16.244Z,27.31
2018-08-08T08:18:16.313Z,27.44
2018-08-08T08:19:16.267Z,27.44
2018-08-08T08:20:16.270Z,27.37
2018-08-08T08:21:16.304Z,27.44
2018-08-08T08:22:16.298Z,27.44
2018-08-08T08:23:16.889Z,27.44
2018-08-08T08:24:16.250Z,27.5
2018-08-08T08:25:16.262Z,27.5
2018-08-08T08:26:16.277Z,27.5
2018-08-08T08:27:16.250Z,27.56
2018-08-08T08:28:16.238Z,27.62
2018-08-08T08:29:16.300Z,27.62
2018-08-08T08:30:16.324Z,27.69
2018-08-08T08:31:16.277Z,27.75
2018-08-08T08:32:16.280Z,27.75
2018-08-08T08:33:16.250Z,27.87
2018-08-08T08:34:16.268Z,27.87
2018-08-08T08:35:16.280Z,27.94
2018-08-08T08:36:16.276Z,27.87
2018-08-08T08:37:16.299Z,27.87
2018-08-08T08:38:16.288Z,27.87
2018-08-08T08:39:16.317Z,27.94
2018-08-08T08:40:16.530Z,27.94
2018-08-08T08:41:16.307Z,28
2018-08-08T08:42:16.353Z,28
2018-08-08T08:43:16.278Z,28.06
2018-08-08T08:44:16.429Z,28.06
2018-08-08T08:45:16.335Z,28.12
2018-08-08T08:46:16.284Z,28.19
2018-08-08T08:47:16.323Z,28.25
2018-08-08T08:48:16.261Z,28.25
2018-08-08T08:49:16.279Z,28.31
2018-08-08T08:50:16.788Z,28.38
2018-08-08T08:51:16.322Z,28.44
2018-08-08T08:52:16.444Z,28.5
2018-08-08T08:53:16.304Z,28.5
2018-08-08T08:54:16.270Z,28.56
2018-08-08T08:55:16.456Z,28.56
2018-08-08T08:56:16.462Z,28.56
2018-08-08T08:57:16.407Z,28.56
2018-08-08T08:58:16.408Z,28.62
2018-08-08T08:59:16.309Z,28.62
2018-08-08T09:00:16.480Z,28.69
2018-08-08T09:01:17.052Z,28.69
2018-08-08T09:02:16.289Z,28.75
2018-08-08T09:03:16.359Z,28.81
2018-08-08T09:04:16.407Z,28.81
2018-08-08T09:05:16.666Z,28.81
2018-08-08T09:06:16.296Z,28.87
2018-08-08T09:07:16.735Z,28.81
2018-08-08T09:08:16.505Z,28.81
2018-08-08T09:09:16.345Z,28.81
2018-08-08T09:10:16.700Z,28.87
2018-08-08T09:11:16.435Z,28.87
2018-08-08T09:12:17.060Z,29
2018-08-08T09:13:16.362Z,29.06
2018-08-08T09:14:16.311Z,29.06
2018-08-08T09:15:16.431Z,29.12
2018-08-08T09:16:16.454Z,29.12
2018-08-08T09:17:16.352Z,29.12
2018-08-08T09:18:16.538Z,29.19
2018-08-08T09:19:16.452Z,29.19
2018-08-08T09:20:16.418Z,29.25
2018-08-08T09:21:16.334Z,29.25
2018-08-08T09:22:16.367Z,29.25
2018-08-08T09:23:16.452Z,29.25
2018-08-08T09:24:16.861Z,29.31
2018-08-08T09:25:16.504Z,29.37
2018-08-08T09:26:16.384Z,29.37
2018-08-08T09:27:16.335Z,29.31
2018-08-08T09:28:16.463Z,29.25
2018-08-08T09:29:16.350Z,29.25
2018-08-08T09:30:16.871Z,29.31
2018-08-08T09:31:16.433Z,29.31
2018-08-08T09:32:16.418Z,29.37
2018-08-08T09:33:16.404Z,29.5
2018-08-08T09:34:16.366Z,29.5
2018-08-08T09:35:16.380Z,29.5
2018-08-08T09:36:16.548Z,29.63
2018-08-08T09:37:16.447Z,29.63
2018-08-08T09:38:16.658Z,29.63
2018-08-08T09:39:16.379Z,29.63
2018-08-08T09:40:17.104Z,29.69
2018-08-08T09:41:16.432Z,29.69
2018-08-08T09:42:16.446Z,29.69
2018-08-08T09:43:16.537Z,29.75
2018-08-08T09:44:16.993Z,29.75
2018-08-08T09:45:16.561Z,29.69
2018-08-08T09:46:16.353Z,29.75
2018-08-08T09:47:16.352Z,29.81
2018-08-08T09:48:16.382Z,29.81
2018-08-08T09:49:16.373Z,29.87
2018-08-08T09:50:16.355Z,29.94
2018-08-08T09:51:16.354Z,29.87
2018-08-08T09:52:16.356Z,29.94
2018-08-08T09:53:16.372Z,29.94
2018-08-08T09:54:16.367Z,30
2018-08-08T09:55:16.400Z,30.06
2018-08-08T09:56:16.732Z,30.06
2018-08-08T09:57:16.366Z,30.06
2018-08-08T09:58:16.378Z,30.12
2018-08-08T09:59:16.361Z,30.12
2018-08-08T10:00:16.585Z,30.12
2018-08-08T10:01:16.401Z,30.12
2018-08-08T10:02:16.474Z,30.12
2018-08-08T10:03:16.392Z,30
2018-08-08T10:04:16.385Z,30.06
2018-08-08T10:05:16.588Z,30
2018-08-08T10:06:16.638Z,30
2018-08-08T10:07:16.550Z,30
2018-08-08T10:08:16.391Z,30
2018-08-08T10:09:16.468Z,30
2018-08-08T10:10:16.458Z,30
2018-08-08T10:11:16.372Z,30.06
2018-08-08T10:12:17.712Z,30.06
2018-08-08T10:13:16.471Z,30
2018-08-08T10:14:16.444Z,30.06
2018-08-08T10:15:16.454Z,30.06
2018-08-08T10:16:16.422Z,30.19
2018-08-08T10:17:16.495Z,30.19
2018-08-08T10:18:16.383Z,30.19
2018-08-08T10:19:16.828Z,30.19
2018-08-08T10:20:16.426Z,30.19
2018-08-08T10:21:16.402Z,30.25
2018-08-08T10:22:16.425Z,30.25
2018-08-08T10:23:16.532Z,30.31
2018-08-08T10:24:16.410Z,30.25
2018-08-08T10:25:16.566Z,30.25
2018-08-08T10:26:16.434Z,30.31
2018-08-08T10:27:16.387Z,30.37
2018-08-08T10:28:16.419Z,30.25
2018-08-08T10:29:16.433Z,30.31
2018-08-08T10:30:16.724Z,30.37
2018-08-08T10:31:16.525Z,30.44
2018-08-08T10:32:16.485Z,30.5
2018-08-08T10:33:16.464Z,30.56
2018-08-08T10:34:16.440Z,30.62
2018-08-08T10:35:16.431Z,30.69
2018-08-08T10:36:16.493Z,30.62
2018-08-08T10:37:16.614Z,30.62
2018-08-08T10:38:16.437Z,30.69
2018-08-08T10:39:16.423Z,30.75
2018-08-08T10:40:16.477Z,30.75
2018-08-08T10:41:16.733Z,30.81
2018-08-08T10:42:16.473Z,30.81
2018-08-08T10:43:16.498Z,30.69
2018-08-08T10:44:16.446Z,30.75
2018-08-08T10:45:16.566Z,30.75
2018-08-08T10:46:16.458Z,30.69
2018-08-08T10:47:16.710Z,30.69
2018-08-08T10:48:16.432Z,30.75
2018-08-08T10:49:16.434Z,30.81
2018-08-08T10:50:16.693Z,30.75
2018-08-08T10:51:16.435Z,30.88
2018-08-08T10:52:16.535Z,30.88
2018-08-08T10:53:16.460Z,30.75
2018-08-08T10:54:16.470Z,30.88
2018-08-08T10:55:16.589Z,30.88
2018-08-08T10:56:17.100Z,30.88
2018-08-08T10:57:16.617Z,30.94
2018-08-08T10:58:16.449Z,30.94
2018-08-08T10:59:16.485Z,31
2018-08-08T11:00:16.496Z,31
2018-08-08T11:01:16.486Z,30.94
2018-08-08T11:02:16.444Z,30.94
2018-08-08T11:03:17.373Z,30.94
2018-08-08T11:04:16.467Z,31
2018-08-08T11:05:16.470Z,30.94
2018-08-08T11:06:16.472Z,30.94
2018-08-08T11:07:16.460Z,31
2018-08-08T11:08:16.438Z,31
2018-08-08T11:09:16.458Z,31.06
2018-08-08T11:10:16.594Z,31.12
2018-08-08T11:11:16.483Z,31.12
2018-08-08T11:12:16.474Z,31.12
2018-08-08T11:13:16.455Z,31.12
2018-08-08T11:14:16.470Z,31.19
2018-08-08T11:15:16.582Z,31.19
2018-08-08T11:16:16.462Z,31.25
2018-08-08T11:17:16.486Z,31.25
2018-08-08T11:18:16.555Z,31.19
2018-08-08T11:19:16.566Z,31.19
2018-08-08T11:20:16.636Z,31.19
2018-08-08T11:21:16.553Z,31.19
2018-08-08T11:22:16.469Z,31.19
2018-08-08T11:23:16.549Z,31.25
2018-08-08T11:24:16.491Z,31.25
2018-08-08T11:25:16.477Z,31.31
2018-08-08T11:26:16.505Z,31.31
2018-08-08T11:27:16.920Z,31.25
2018-08-08T11:28:16.485Z,31.19
2018-08-08T11:29:16.618Z,31.25
2018-08-08T11:30:16.816Z,31.25
2018-08-08T11:31:16.544Z,31.19
2018-08-08T11:32:16.604Z,31.25
2018-08-08T11:33:17.167Z,31.31
2018-08-08T11:34:16.606Z,31.25
2018-08-08T11:35:16.545Z,31.31
2018-08-08T11:36:16.671Z,31.37
2018-08-08T11:37:16.670Z,31.37
2018-08-08T11:38:16.543Z,31.5
2018-08-08T11:39:16.772Z,31.5
2018-08-08T11:40:16.636Z,31.56
2018-08-08T11:41:16.530Z,31.69
2018-08-08T11:42:16.639Z,31.75
2018-08-08T11:43:16.517Z,31.75
2018-08-08T11:44:16.525Z,31.75
2018-08-08T11:45:16.504Z,31.81
2018-08-08T11:46:16.638Z,31.75
2018-08-08T11:47:16.588Z,31.69
2018-08-08T11:48:16.558Z,31.69
2018-08-08T11:49:16.530Z,31.62
2018-08-08T11:50:16.720Z,31.62
2018-08-08T11:51:16.699Z,31.56
2018-08-08T11:52:16.635Z,31.56
2018-08-08T11:53:16.640Z,31.56
2018-08-08T11:54:16.617Z,31.56
2018-08-08T11:55:16.552Z,31.44
2018-08-08T11:56:16.565Z,31.44
2018-08-08T11:57:16.545Z,31.5
2018-08-08T11:58:16.677Z,31.37
2018-08-08T11:59:16.778Z,31.37
2018-08-08T12:00:16.557Z,31.5
2018-08-08T12:01:16.728Z,31.56
2018-08-08T12:02:16.889Z,31.56
2018-08-08T12:03:16.751Z,31.56
2018-08-08T12:04:16.623Z,31.69
2018-08-08T12:05:16.573Z,31.69
2018-08-08T12:06:16.624Z,31.69
2018-08-08T12:07:16.810Z,31.62
2018-08-08T12:08:16.597Z,31.56
2018-08-08T12:09:16.735Z,31.56
2018-08-08T12:10:16.570Z,31.62
2018-08-08T12:11:16.551Z,31.62
2018-08-08T12:12:17.769Z,31.56
2018-08-08T12:13:16.850Z,31.62
2018-08-08T12:14:16.923Z,31.62
2018-08-08T12:15:16.640Z,31.62
2018-08-08T12:16:16.564Z,31.62
2018-08-08T12:17:16.574Z,31.62
2018-08-08T12:18:16.578Z,31.62
2018-08-08T12:19:16.560Z,31.69
2018-08-08T12:20:16.825Z,31.69
2018-08-08T12:21:16.538Z,31.81
2018-08-08T12:22:16.592Z,31.87
2018-08-08T12:23:16.869Z,31.87
2018-08-08T12:24:16.560Z,31.81
2018-08-08T12:25:16.584Z,31.94
2018-08-08T12:26:16.593Z,32
2018-08-08T12:27:16.613Z,32
2018-08-08T12:28:16.572Z,32
2018-08-08T12:29:16.584Z,32
2018-08-08T12:30:16.597Z,32.06
2018-08-08T12:31:16.609Z,31.87
2018-08-08T12:32:16.611Z,32
2018-08-08T12:33:16.640Z,32
2018-08-08T12:34:17.072Z,32
2018-08-08T12:35:17.363Z,32.06
2018-08-08T12:36:16.575Z,32.13
2018-08-08T12:37:17.287Z,32.13
2018-08-08T12:38:16.584Z,32.19
2018-08-08T12:39:17.378Z,32.19
2018-08-08T12:40:17.243Z,32.25
2018-08-08T12:41:16.599Z,32.25
2018-08-08T12:42:16.752Z,32.31
2018-08-08T12:43:16.588Z,32.31
2018-08-08T12:44:16.599Z,32.38
2018-08-08T12:45:16.695Z,32.44
2018-08-08T12:46:17.313Z,32.5
2018-08-08T12:47:16.841Z,32.5
2018-08-08T12:48:16.655Z,32.56
2018-08-08T12:49:16.607Z,32.63
2018-08-08T12:50:16.964Z,32.63
2018-08-08T12:51:16.667Z,32.63
2018-08-08T12:52:16.876Z,32.56
2018-08-08T12:53:16.649Z,32.31
2018-08-08T12:54:16.727Z,32.38
2018-08-08T12:55:16.641Z,32.25
2018-08-08T12:56:16.601Z,32.19
2018-08-08T12:57:16.658Z,32.25
2018-08-08T12:58:16.701Z,32.31